sensor_id;sensor_type;location;lat;lon;timestamp;P1;durP1;ratioP1;P2;durP2;ratioP2
38111;SDS011;64011;56.312;44.048;2023-09-12T00:00:31;20.45;;;11.15;;
38111;SDS011;64011;56.312;44.048;2023-09-12T00:02:32;19.77;;;10.95;;
38111;SDS011;64011;56.312;44.048;2023-09-12T00:04:33;17.48;;;9.85;;
38111;SDS011;64011;56.312;44.048;2023-09-12T00:06:33;22.80;;;11.65;;
38111;SDS011;64011;56.312;44.048;2023-09-12T00:08:36;18.10;;;9.13;;
38111;SDS011;64011;56.312;44.048;2023-09-12T00:10:37;18.02;;;9.35;;
38111;SDS011;64011;56.312;44.048;2023-09-12T00:12:37;19.33;;;9.95;;
38111;SDS011;64011;56.312;44.048;2023-09-12T00:14:38;18.88;;;10.52;;
38111;SDS011;64011;56.312;44.048;2023-09-12T00:16:39;19.40;;;9.88;;
38111;SDS011;64011;56.312;44.048;2023-09-12T00:18:40;20.60;;;9.75;;
38111;SDS011;64011;56.312;44.048;2023-09-12T00:20:41;19.13;;;9.95;;
38111;SDS011;64011;56.312;44.048;2023-09-12T00:22:42;20.55;;;10.60;;
38111;SDS011;64011;56.312;44.048;2023-09-12T00:24:44;17.67;;;8.75;;
38111;SDS011;64011;56.312;44.048;2023-09-12T00:26:45;19.33;;;9.63;;
38111;SDS011;64011;56.312;44.048;2023-09-12T00:28:46;17.48;;;9.20;;
38111;SDS011;64011;56.312;44.048;2023-09-12T00:30:47;18.90;;;9.90;;
38111;SDS011;64011;56.312;44.048;2023-09-12T00:32:47;18.08;;;9.15;;
38111;SDS011;64011;56.312;44.048;2023-09-12T00:34:48;18.23;;;9.70;;
38111;SDS011;64011;56.312;44.048;2023-09-12T00:36:50;21.67;;;10.68;;
38111;SDS011;64011;56.312;44.048;2023-09-12T00:38:50;17.45;;;8.63;;
38111;SDS011;64011;56.312;44.048;2023-09-12T00:40:53;18.08;;;8.93;;
38111;SDS011;64011;56.312;44.048;2023-09-12T00:42:54;17.33;;;8.63;;
38111;SDS011;64011;56.312;44.048;2023-09-12T00:44:54;17.73;;;9.52;;
38111;SDS011;64011;56.312;44.048;2023-09-12T00:46:55;18.80;;;9.38;;
38111;SDS011;64011;56.312;44.048;2023-09-12T00:48:56;20.40;;;9.30;;
38111;SDS011;64011;56.312;44.048;2023-09-12T00:50:58;17.98;;;8.38;;
38111;SDS011;64011;56.312;44.048;2023-09-12T00:52:59;17.90;;;8.60;;
38111;SDS011;64011;56.312;44.048;2023-09-12T00:55:00;20.00;;;8.25;;
38111;SDS011;64011;56.312;44.048;2023-09-12T00:57:03;17.83;;;8.80;;
38111;SDS011;64011;56.312;44.048;2023-09-12T00:59:04;19.08;;;9.07;;
38111;SDS011;64011;56.312;44.048;2023-09-12T01:01:05;20.35;;;9.02;;
38111;SDS011;64011;56.312;44.048;2023-09-12T01:03:06;17.63;;;9.27;;
38111;SDS011;64011;56.312;44.048;2023-09-12T01:05:07;18.83;;;9.35;;
38111;SDS011;64011;56.312;44.048;2023-09-12T01:07:09;20.95;;;10.23;;
38111;SDS011;64011;56.312;44.048;2023-09-12T01:09:10;18.92;;;9.57;;
38111;SDS011;64011;56.312;44.048;2023-09-12T01:11:12;20.33;;;8.93;;
38111;SDS011;64011;56.312;44.048;2023-09-12T01:13:15;18.67;;;9.15;;
38111;SDS011;64011;56.312;44.048;2023-09-12T01:15:16;19.77;;;9.60;;
38111;SDS011;64011;56.312;44.048;2023-09-12T01:17:17;20.10;;;9.85;;
38111;SDS011;64011;56.312;44.048;2023-09-12T01:19:18;19.00;;;10.00;;
38111;SDS011;64011;56.312;44.048;2023-09-12T01:23:42;19.38;;;9.85;;
38111;SDS011;64011;56.312;44.048;2023-09-12T01:25:54;19.60;;;9.57;;
38111;SDS011;64011;56.312;44.048;2023-09-12T01:28:16;20.23;;;10.00;;
38111;SDS011;64011;56.312;44.048;2023-09-12T01:30:18;22.77;;;10.45;;
38111;SDS011;64011;56.312;44.048;2023-09-12T01:32:21;20.70;;;10.27;;
38111;SDS011;64011;56.312;44.048;2023-09-12T01:34:23;22.17;;;10.13;;
38111;SDS011;64011;56.312;44.048;2023-09-12T01:36:24;18.77;;;9.73;;
38111;SDS011;64011;56.312;44.048;2023-09-12T01:38:24;21.00;;;10.55;;
38111;SDS011;64011;56.312;44.048;2023-09-12T01:40:27;18.60;;;9.82;;
38111;SDS011;64011;56.312;44.048;2023-09-12T01:42:36;21.02;;;9.77;;
38111;SDS011;64011;56.312;44.048;2023-09-12T01:44:39;32.55;;;10.52;;
38111;SDS011;64011;56.312;44.048;2023-09-12T01:46:41;20.42;;;10.70;;
38111;SDS011;64011;56.312;44.048;2023-09-12T01:48:43;20.75;;;10.98;;
38111;SDS011;64011;56.312;44.048;2023-09-12T01:50:44;21.20;;;12.30;;
38111;SDS011;64011;56.312;44.048;2023-09-12T01:52:45;23.15;;;11.23;;
38111;SDS011;64011;56.312;44.048;2023-09-12T01:54:49;22.48;;;12.05;;
38111;SDS011;64011;56.312;44.048;2023-09-12T01:56:51;20.95;;;12.02;;
38111;SDS011;64011;56.312;44.048;2023-09-12T01:58:53;21.00;;;10.52;;
38111;SDS011;64011;56.312;44.048;2023-09-12T02:00:59;21.20;;;11.40;;
38111;SDS011;64011;56.312;44.048;2023-09-12T02:03:01;19.05;;;10.25;;
38111;SDS011;64011;56.312;44.048;2023-09-12T02:05:04;21.02;;;9.95;;
38111;SDS011;64011;56.312;44.048;2023-09-12T02:07:08;23.13;;;11.82;;
38111;SDS011;64011;56.312;44.048;2023-09-12T02:09:09;23.20;;;12.05;;
38111;SDS011;64011;56.312;44.048;2023-09-12T02:11:10;21.83;;;10.73;;
38111;SDS011;64011;56.312;44.048;2023-09-12T02:13:11;21.50;;;11.00;;
38111;SDS011;64011;56.312;44.048;2023-09-12T02:15:12;26.58;;;12.20;;
38111;SDS011;64011;56.312;44.048;2023-09-12T02:17:14;22.88;;;10.85;;
38111;SDS011;64011;56.312;44.048;2023-09-12T02:19:15;21.35;;;10.68;;
38111;SDS011;64011;56.312;44.048;2023-09-12T02:21:16;22.27;;;11.85;;
38111;SDS011;64011;56.312;44.048;2023-09-12T02:23:17;22.88;;;9.77;;
38111;SDS011;64011;56.312;44.048;2023-09-12T02:25:18;18.20;;;9.23;;
38111;SDS011;64011;56.312;44.048;2023-09-12T02:27:20;22.50;;;10.70;;
38111;SDS011;64011;56.312;44.048;2023-09-12T02:29:20;19.50;;;10.02;;
38111;SDS011;64011;56.312;44.048;2023-09-12T02:31:21;19.35;;;10.18;;
38111;SDS011;64011;56.312;44.048;2023-09-12T02:33:24;20.30;;;9.90;;
38111;SDS011;64011;56.312;44.048;2023-09-12T02:35:24;21.73;;;11.27;;
38111;SDS011;64011;56.312;44.048;2023-09-12T02:37:27;20.58;;;11.02;;
38111;SDS011;64011;56.312;44.048;2023-09-12T02:39:28;27.65;;;16.25;;
38111;SDS011;64011;56.312;44.048;2023-09-12T02:41:29;24.48;;;13.85;;
38111;SDS011;64011;56.312;44.048;2023-09-12T02:43:30;22.67;;;11.55;;
38111;SDS011;64011;56.312;44.048;2023-09-12T02:45:31;20.05;;;10.63;;
38111;SDS011;64011;56.312;44.048;2023-09-12T02:47:31;20.30;;;11.07;;
38111;SDS011;64011;56.312;44.048;2023-09-12T02:49:34;20.98;;;11.10;;
38111;SDS011;64011;56.312;44.048;2023-09-12T02:51:36;20.50;;;11.25;;
38111;SDS011;64011;56.312;44.048;2023-09-12T02:53:38;21.88;;;12.18;;
38111;SDS011;64011;56.312;44.048;2023-09-12T02:55:39;22.65;;;11.05;;
38111;SDS011;64011;56.312;44.048;2023-09-12T02:57:40;19.60;;;10.10;;
38111;SDS011;64011;56.312;44.048;2023-09-12T02:59:41;21.35;;;11.20;;
38111;SDS011;64011;56.312;44.048;2023-09-12T03:01:42;22.27;;;12.38;;
38111;SDS011;64011;56.312;44.048;2023-09-12T03:03:43;22.10;;;11.73;;
38111;SDS011;64011;56.312;44.048;2023-09-12T03:05:45;22.42;;;10.93;;
38111;SDS011;64011;56.312;44.048;2023-09-12T03:07:46;20.58;;;11.73;;
38111;SDS011;64011;56.312;44.048;2023-09-12T03:09:47;20.95;;;12.15;;
38111;SDS011;64011;56.312;44.048;2023-09-12T03:11:48;20.58;;;11.02;;
38111;SDS011;64011;56.312;44.048;2023-09-12T03:13:49;20.92;;;10.93;;
38111;SDS011;64011;56.312;44.048;2023-09-12T03:15:50;21.65;;;11.63;;
38111;SDS011;64011;56.312;44.048;2023-09-12T03:17:51;20.67;;;11.15;;
38111;SDS011;64011;56.312;44.048;2023-09-12T03:19:52;22.65;;;11.93;;
38111;SDS011;64011;56.312;44.048;2023-09-12T03:21:54;20.88;;;11.00;;
38111;SDS011;64011;56.312;44.048;2023-09-12T03:23:55;22.27;;;12.10;;
38111;SDS011;64011;56.312;44.048;2023-09-12T03:25:59;20.67;;;11.02;;
38111;SDS011;64011;56.312;44.048;2023-09-12T03:28:00;24.30;;;12.77;;
38111;SDS011;64011;56.312;44.048;2023-09-12T03:30:01;21.65;;;12.35;;
38111;SDS011;64011;56.312;44.048;2023-09-12T03:32:06;21.48;;;12.20;;
38111;SDS011;64011;56.312;44.048;2023-09-12T03:34:06;20.15;;;10.38;;
38111;SDS011;64011;56.312;44.048;2023-09-12T03:36:08;21.27;;;11.75;;
38111;SDS011;64011;56.312;44.048;2023-09-12T03:38:10;19.52;;;11.27;;
38111;SDS011;64011;56.312;44.048;2023-09-12T03:40:11;19.80;;;10.50;;
38111;SDS011;64011;56.312;44.048;2023-09-12T03:42:12;20.42;;;11.18;;
38111;SDS011;64011;56.312;44.048;2023-09-12T03:44:13;19.88;;;11.40;;
38111;SDS011;64011;56.312;44.048;2023-09-12T03:46:14;22.50;;;11.13;;
38111;SDS011;64011;56.312;44.048;2023-09-12T03:48:15;19.77;;;9.95;;
38111;SDS011;64011;56.312;44.048;2023-09-12T03:50:16;20.33;;;11.68;;
38111;SDS011;64011;56.312;44.048;2023-09-12T03:52:17;19.90;;;11.15;;
38111;SDS011;64011;56.312;44.048;2023-09-12T03:54:19;20.45;;;11.18;;
38111;SDS011;64011;56.312;44.048;2023-09-12T03:56:20;20.60;;;10.52;;
38111;SDS011;64011;56.312;44.048;2023-09-12T03:58:21;19.95;;;10.20;;
38111;SDS011;64011;56.312;44.048;2023-09-12T04:00:22;18.73;;;9.27;;
38111;SDS011;64011;56.312;44.048;2023-09-12T04:02:23;17.85;;;9.63;;
38111;SDS011;64011;56.312;44.048;2023-09-12T04:04:24;19.70;;;10.32;;
38111;SDS011;64011;56.312;44.048;2023-09-12T04:06:25;18.50;;;9.93;;
38111;SDS011;64011;56.312;44.048;2023-09-12T04:08:25;18.65;;;9.13;;
38111;SDS011;64011;56.312;44.048;2023-09-12T04:10:28;18.13;;;9.20;;
38111;SDS011;64011;56.312;44.048;2023-09-12T04:12:28;19.33;;;10.18;;
38111;SDS011;64011;56.312;44.048;2023-09-12T04:14:29;21.85;;;9.40;;
38111;SDS011;64011;56.312;44.048;2023-09-12T04:16:30;18.30;;;9.38;;
38111;SDS011;64011;56.312;44.048;2023-09-12T04:18:31;17.85;;;8.90;;
38111;SDS011;64011;56.312;44.048;2023-09-12T04:20:32;19.73;;;9.90;;
38111;SDS011;64011;56.312;44.048;2023-09-12T04:22:33;19.00;;;9.50;;
38111;SDS011;64011;56.312;44.048;2023-09-12T04:24:33;17.25;;;8.73;;
38111;SDS011;64011;56.312;44.048;2023-09-12T04:26:36;17.73;;;9.32;;
38111;SDS011;64011;56.312;44.048;2023-09-12T04:28:37;17.40;;;8.70;;
38111;SDS011;64011;56.312;44.048;2023-09-12T04:30:38;17.23;;;8.77;;
38111;SDS011;64011;56.312;44.048;2023-09-12T04:32:39;19.23;;;9.27;;
38111;SDS011;64011;56.312;44.048;2023-09-12T04:34:42;18.90;;;9.75;;
38111;SDS011;64011;56.312;44.048;2023-09-12T04:36:43;18.83;;;9.35;;
38111;SDS011;64011;56.312;44.048;2023-09-12T04:38:43;18.27;;;9.27;;
38111;SDS011;64011;56.312;44.048;2023-09-12T04:40:52;21.15;;;9.73;;
38111;SDS011;64011;56.312;44.048;2023-09-12T04:42:55;19.63;;;10.05;;
38111;SDS011;64011;56.312;44.048;2023-09-12T04:44:56;17.45;;;9.05;;
38111;SDS011;64011;56.312;44.048;2023-09-12T04:46:57;19.15;;;9.13;;
38111;SDS011;64011;56.312;44.048;2023-09-12T04:48:58;18.35;;;8.65;;
38111;SDS011;64011;56.312;44.048;2023-09-12T04:50:59;17.50;;;8.60;;
38111;SDS011;64011;56.312;44.048;2023-09-12T04:52:59;19.58;;;8.85;;
38111;SDS011;64011;56.312;44.048;2023-09-12T04:55:00;19.33;;;9.38;;
38111;SDS011;64011;56.312;44.048;2023-09-12T04:57:04;21.15;;;9.20;;
38111;SDS011;64011;56.312;44.048;2023-09-12T04:59:06;19.98;;;9.25;;
38111;SDS011;64011;56.312;44.048;2023-09-12T05:01:07;18.42;;;8.32;;
38111;SDS011;64011;56.312;44.048;2023-09-12T05:03:08;16.90;;;8.15;;
38111;SDS011;64011;56.312;44.048;2023-09-12T05:05:09;17.70;;;9.15;;
38111;SDS011;64011;56.312;44.048;2023-09-12T05:07:10;21.50;;;8.98;;
38111;SDS011;64011;56.312;44.048;2023-09-12T05:09:10;18.35;;;8.60;;
38111;SDS011;64011;56.312;44.048;2023-09-12T05:11:11;17.40;;;8.65;;
38111;SDS011;64011;56.312;44.048;2023-09-12T05:13:12;17.42;;;8.90;;
38111;SDS011;64011;56.312;44.048;2023-09-12T05:15:15;18.75;;;8.57;;
38111;SDS011;64011;56.312;44.048;2023-09-12T05:17:16;16.77;;;7.80;;
38111;SDS011;64011;56.312;44.048;2023-09-12T05:19:17;14.85;;;6.97;;
38111;SDS011;64011;56.312;44.048;2023-09-12T05:21:17;15.88;;;7.57;;
38111;SDS011;64011;56.312;44.048;2023-09-12T05:23:18;16.83;;;7.68;;
38111;SDS011;64011;56.312;44.048;2023-09-12T05:25:19;15.23;;;7.32;;
38111;SDS011;64011;56.312;44.048;2023-09-12T05:27:20;15.65;;;7.13;;
38111;SDS011;64011;56.312;44.048;2023-09-12T05:29:21;15.20;;;7.18;;
38111;SDS011;64011;56.312;44.048;2023-09-12T05:31:23;16.52;;;7.53;;
38111;SDS011;64011;56.312;44.048;2023-09-12T05:33:24;14.05;;;6.43;;
38111;SDS011;64011;56.312;44.048;2023-09-12T05:35:24;16.98;;;7.57;;
38111;SDS011;64011;56.312;44.048;2023-09-12T05:37:25;14.60;;;6.57;;
38111;SDS011;64011;56.312;44.048;2023-09-12T05:39:26;15.27;;;6.45;;
38111;SDS011;64011;56.312;44.048;2023-09-12T05:41:27;16.25;;;6.88;;
38111;SDS011;64011;56.312;44.048;2023-09-12T05:43:28;16.95;;;7.28;;
38111;SDS011;64011;56.312;44.048;2023-09-12T05:45:29;16.38;;;7.03;;
38111;SDS011;64011;56.312;44.048;2023-09-12T05:47:31;14.57;;;7.22;;
38111;SDS011;64011;56.312;44.048;2023-09-12T05:49:32;14.13;;;7.32;;
38111;SDS011;64011;56.312;44.048;2023-09-12T05:51:33;14.30;;;6.72;;
38111;SDS011;64011;56.312;44.048;2023-09-12T05:53:33;16.00;;;6.80;;
38111;SDS011;64011;56.312;44.048;2023-09-12T05:55:34;15.02;;;7.05;;
38111;SDS011;64011;56.312;44.048;2023-09-12T05:57:35;14.82;;;7.18;;
38111;SDS011;64011;56.312;44.048;2023-09-12T05:59:36;17.45;;;7.47;;
38111;SDS011;64011;56.312;44.048;2023-09-12T06:01:38;15.68;;;6.97;;
38111;SDS011;64011;56.312;44.048;2023-09-12T06:03:40;14.48;;;6.68;;
38111;SDS011;64011;56.312;44.048;2023-09-12T06:05:41;14.60;;;6.70;;
38111;SDS011;64011;56.312;44.048;2023-09-12T06:07:41;15.05;;;7.32;;
38111;SDS011;64011;56.312;44.048;2023-09-12T06:09:43;13.98;;;6.82;;
38111;SDS011;64011;56.312;44.048;2023-09-12T06:11:44;13.68;;;6.57;;
38111;SDS011;64011;56.312;44.048;2023-09-12T06:13:44;16.92;;;7.30;;
38111;SDS011;64011;56.312;44.048;2023-09-12T06:15:45;15.85;;;6.93;;
38111;SDS011;64011;56.312;44.048;2023-09-12T06:17:46;14.73;;;6.55;;
38111;SDS011;64011;56.312;44.048;2023-09-12T06:19:48;16.40;;;6.72;;
38111;SDS011;64011;56.312;44.048;2023-09-12T06:21:49;14.35;;;6.97;;
38111;SDS011;64011;56.312;44.048;2023-09-12T06:26:08;15.07;;;6.80;;
38111;SDS011;64011;56.312;44.048;2023-09-12T06:28:09;14.32;;;6.65;;
38111;SDS011;64011;56.312;44.048;2023-09-12T06:30:11;14.50;;;7.15;;
38111;SDS011;64011;56.312;44.048;2023-09-12T06:32:12;14.45;;;7.28;;
38111;SDS011;64011;56.312;44.048;2023-09-12T06:34:13;15.90;;;7.00;;
38111;SDS011;64011;56.312;44.048;2023-09-12T06:36:15;13.75;;;7.30;;
38111;SDS011;64011;56.312;44.048;2023-09-12T06:38:16;17.20;;;8.27;;
38111;SDS011;64011;56.312;44.048;2023-09-12T06:40:17;15.88;;;7.75;;
38111;SDS011;64011;56.312;44.048;2023-09-12T06:42:20;17.55;;;8.27;;
38111;SDS011;64011;56.312;44.048;2023-09-12T06:44:20;17.98;;;8.25;;
38111;SDS011;64011;56.312;44.048;2023-09-12T06:46:21;15.98;;;7.72;;
38111;SDS011;64011;56.312;44.048;2023-09-12T06:48:22;15.35;;;8.02;;
38111;SDS011;64011;56.312;44.048;2023-09-12T06:50:23;16.83;;;8.65;;
38111;SDS011;64011;56.312;44.048;2023-09-12T06:52:25;17.58;;;8.73;;
38111;SDS011;64011;56.312;44.048;2023-09-12T06:54:26;16.50;;;9.98;;
38111;SDS011;64011;56.312;44.048;2023-09-12T06:56:27;18.02;;;8.65;;
38111;SDS011;64011;56.312;44.048;2023-09-12T06:58:28;18.15;;;9.98;;
38111;SDS011;64011;56.312;44.048;2023-09-12T07:00:29;17.05;;;8.88;;
38111;SDS011;64011;56.312;44.048;2023-09-12T07:02:30;18.40;;;9.27;;
38111;SDS011;64011;56.312;44.048;2023-09-12T07:04:30;16.33;;;8.52;;
38111;SDS011;64011;56.312;44.048;2023-09-12T07:06:31;15.48;;;7.50;;
38111;SDS011;64011;56.312;44.048;2023-09-12T07:08:34;14.80;;;8.23;;
38111;SDS011;64011;56.312;44.048;2023-09-12T07:10:36;16.42;;;7.80;;
38111;SDS011;64011;56.312;44.048;2023-09-12T07:12:37;15.38;;;7.65;;
38111;SDS011;64011;56.312;44.048;2023-09-12T07:14:38;15.80;;;6.78;;
38111;SDS011;64011;56.312;44.048;2023-09-12T07:16:38;14.40;;;6.63;;
38111;SDS011;64011;56.312;44.048;2023-09-12T07:18:39;13.02;;;6.78;;
38111;SDS011;64011;56.312;44.048;2023-09-12T07:20:40;13.20;;;6.00;;
38111;SDS011;64011;56.312;44.048;2023-09-12T07:22:41;14.57;;;7.18;;
38111;SDS011;64011;56.312;44.048;2023-09-12T07:24:43;15.73;;;7.20;;
38111;SDS011;64011;56.312;44.048;2023-09-12T07:26:44;14.30;;;7.05;;
38111;SDS011;64011;56.312;44.048;2023-09-12T07:28:45;13.35;;;6.15;;
38111;SDS011;64011;56.312;44.048;2023-09-12T07:30:46;13.63;;;6.60;;
38111;SDS011;64011;56.312;44.048;2023-09-12T07:32:47;13.68;;;6.30;;
38111;SDS011;64011;56.312;44.048;2023-09-12T07:34:48;13.82;;;6.32;;
38111;SDS011;64011;56.312;44.048;2023-09-12T07:36:49;14.63;;;6.30;;
38111;SDS011;64011;56.312;44.048;2023-09-12T07:38:50;16.27;;;6.78;;
38111;SDS011;64011;56.312;44.048;2023-09-12T07:40:52;14.20;;;6.47;;
38111;SDS011;64011;56.312;44.048;2023-09-12T07:42:54;15.60;;;7.03;;
38111;SDS011;64011;56.312;44.048;2023-09-12T07:44:55;14.15;;;6.00;;
38111;SDS011;64011;56.312;44.048;2023-09-12T07:46:56;15.07;;;6.75;;
38111;SDS011;64011;56.312;44.048;2023-09-12T07:48:56;12.98;;;6.18;;
38111;SDS011;64011;56.312;44.048;2023-09-12T07:50:57;15.45;;;6.90;;
38111;SDS011;64011;56.312;44.048;2023-09-12T07:52:58;14.90;;;6.70;;
38111;SDS011;64011;56.312;44.048;2023-09-12T07:54:59;14.52;;;6.25;;
38111;SDS011;64011;56.312;44.048;2023-09-12T07:57:02;14.32;;;6.25;;
38111;SDS011;64011;56.312;44.048;2023-09-12T07:59:03;12.43;;;6.28;;
38111;SDS011;64011;56.312;44.048;2023-09-12T08:01:06;17.90;;;7.00;;
38111;SDS011;64011;56.312;44.048;2023-09-12T08:03:08;13.68;;;6.47;;
38111;SDS011;64011;56.312;44.048;2023-09-12T08:05:08;14.90;;;6.40;;
38111;SDS011;64011;56.312;44.048;2023-09-12T08:07:10;15.13;;;6.65;;
38111;SDS011;64011;56.312;44.048;2023-09-12T08:09:10;14.32;;;6.30;;
38111;SDS011;64011;56.312;44.048;2023-09-12T08:11:11;14.05;;;6.00;;
38111;SDS011;64011;56.312;44.048;2023-09-12T08:13:14;17.02;;;6.55;;
38111;SDS011;64011;56.312;44.048;2023-09-12T08:15:15;15.93;;;6.47;;
38111;SDS011;64011;56.312;44.048;2023-09-12T08:17:16;14.88;;;6.10;;
38111;SDS011;64011;56.312;44.048;2023-09-12T08:19:16;12.75;;;6.38;;
38111;SDS011;64011;56.312;44.048;2023-09-12T08:21:17;16.80;;;6.20;;
38111;SDS011;64011;56.312;44.048;2023-09-12T08:23:18;12.10;;;5.40;;
38111;SDS011;64011;56.312;44.048;2023-09-12T08:25:19;14.30;;;5.65;;
38111;SDS011;64011;56.312;44.048;2023-09-12T08:27:20;19.30;;;13.25;;
38111;SDS011;64011;56.312;44.048;2023-09-12T08:29:22;13.30;;;5.78;;
38111;SDS011;64011;56.312;44.048;2023-09-12T08:31:23;14.30;;;5.88;;
38111;SDS011;64011;56.312;44.048;2023-09-12T08:33:24;12.90;;;6.18;;
38111;SDS011;64011;56.312;44.048;2023-09-12T08:35:25;15.05;;;6.80;;
38111;SDS011;64011;56.312;44.048;2023-09-12T08:37:25;12.02;;;5.45;;
38111;SDS011;64011;56.312;44.048;2023-09-12T08:39:27;11.55;;;5.40;;
38111;SDS011;64011;56.312;44.048;2023-09-12T08:41:28;11.13;;;5.50;;
38111;SDS011;64011;56.312;44.048;2023-09-12T08:43:29;14.25;;;5.60;;
38111;SDS011;64011;56.312;44.048;2023-09-12T08:45:31;11.10;;;5.15;;
38111;SDS011;64011;56.312;44.048;2023-09-12T08:47:32;11.95;;;5.60;;
38111;SDS011;64011;56.312;44.048;2023-09-12T08:49:33;16.40;;;6.10;;
38111;SDS011;64011;56.312;44.048;2023-09-12T08:51:35;12.73;;;5.47;;
38111;SDS011;64011;56.312;44.048;2023-09-12T08:53:37;11.32;;;5.18;;
38111;SDS011;64011;56.312;44.048;2023-09-12T08:55:37;13.52;;;5.05;;
38111;SDS011;64011;56.312;44.048;2023-09-12T08:57:38;12.90;;;5.63;;
38111;SDS011;64011;56.312;44.048;2023-09-12T08:59:41;12.38;;;5.40;;
38111;SDS011;64011;56.312;44.048;2023-09-12T09:01:44;10.48;;;5.38;;
38111;SDS011;64011;56.312;44.048;2023-09-12T09:03:46;13.45;;;5.60;;
38111;SDS011;64011;56.312;44.048;2023-09-12T09:05:47;24.85;;;6.10;;
38111;SDS011;64011;56.312;44.048;2023-09-12T09:07:48;17.05;;;5.57;;
38111;SDS011;64011;56.312;44.048;2023-09-12T09:09:50;11.75;;;5.47;;
38111;SDS011;64011;56.312;44.048;2023-09-12T09:11:52;10.88;;;4.90;;
38111;SDS011;64011;56.312;44.048;2023-09-12T09:13:53;10.73;;;5.15;;
38111;SDS011;64011;56.312;44.048;2023-09-12T09:16:09;11.90;;;4.80;;
38111;SDS011;64011;56.312;44.048;2023-09-12T09:18:12;10.85;;;4.90;;
38111;SDS011;64011;56.312;44.048;2023-09-12T09:20:21;9.15;;;4.60;;
38111;SDS011;64011;56.312;44.048;2023-09-12T09:22:22;11.10;;;5.32;;
38111;SDS011;64011;56.312;44.048;2023-09-12T09:24:23;10.95;;;4.78;;
38111;SDS011;64011;56.312;44.048;2023-09-12T09:26:24;10.30;;;4.32;;
38111;SDS011;64011;56.312;44.048;2023-09-12T09:28:25;12.02;;;4.57;;
38111;SDS011;64011;56.312;44.048;2023-09-12T09:30:38;10.48;;;4.63;;
38111;SDS011;64011;56.312;44.048;2023-09-12T09:32:40;11.65;;;4.47;;
38111;SDS011;64011;56.312;44.048;2023-09-12T09:34:42;12.52;;;4.28;;
38111;SDS011;64011;56.312;44.048;2023-09-12T09:36:44;11.43;;;4.50;;
38111;SDS011;64011;56.312;44.048;2023-09-12T09:38:47;11.70;;;4.70;;
38111;SDS011;64011;56.312;44.048;2023-09-12T09:40:48;10.80;;;4.88;;
38111;SDS011;64011;56.312;44.048;2023-09-12T09:42:52;13.23;;;5.45;;
38111;SDS011;64011;56.312;44.048;2023-09-12T09:44:53;11.57;;;4.88;;
38111;SDS011;64011;56.312;44.048;2023-09-12T09:46:55;9.70;;;4.85;;
38111;SDS011;64011;56.312;44.048;2023-09-12T09:48:58;11.75;;;4.30;;
38111;SDS011;64011;56.312;44.048;2023-09-12T09:51:03;9.75;;;4.53;;
38111;SDS011;64011;56.312;44.048;2023-09-12T09:53:04;10.52;;;4.55;;
38111;SDS011;64011;56.312;44.048;2023-09-12T09:55:06;9.48;;;4.20;;
38111;SDS011;64011;56.312;44.048;2023-09-12T09:57:07;10.50;;;4.60;;
38111;SDS011;64011;56.312;44.048;2023-09-12T09:59:07;9.02;;;4.20;;
38111;SDS011;64011;56.312;44.048;2023-09-12T10:01:15;11.45;;;4.45;;
38111;SDS011;64011;56.312;44.048;2023-09-12T10:03:18;8.93;;;4.20;;
38111;SDS011;64011;56.312;44.048;2023-09-12T10:05:19;11.27;;;4.40;;
38111;SDS011;64011;56.312;44.048;2023-09-12T10:07:22;15.27;;;4.45;;
38111;SDS011;64011;56.312;44.048;2023-09-12T10:09:25;11.50;;;4.13;;
38111;SDS011;64011;56.312;44.048;2023-09-12T10:11:27;10.77;;;4.47;;
38111;SDS011;64011;56.312;44.048;2023-09-12T10:13:29;8.98;;;3.97;;
38111;SDS011;64011;56.312;44.048;2023-09-12T10:15:31;9.00;;;3.63;;
38111;SDS011;64011;56.312;44.048;2023-09-12T10:17:34;8.38;;;4.13;;
38111;SDS011;64011;56.312;44.048;2023-09-12T10:19:38;9.70;;;3.58;;
38111;SDS011;64011;56.312;44.048;2023-09-12T10:21:41;10.27;;;4.05;;
38111;SDS011;64011;56.312;44.048;2023-09-12T10:23:48;7.05;;;3.35;;
38111;SDS011;64011;56.312;44.048;2023-09-12T10:25:49;6.78;;;3.20;;
38111;SDS011;64011;56.312;44.048;2023-09-12T10:27:51;7.90;;;3.60;;
38111;SDS011;64011;56.312;44.048;2023-09-12T10:29:53;6.80;;;3.22;;
38111;SDS011;64011;56.312;44.048;2023-09-12T10:31:54;7.57;;;3.30;;
38111;SDS011;64011;56.312;44.048;2023-09-12T10:33:56;7.72;;;3.20;;
38111;SDS011;64011;56.312;44.048;2023-09-12T10:35:58;6.43;;;3.40;;
38111;SDS011;64011;56.312;44.048;2023-09-12T10:37:59;7.43;;;3.58;;
38111;SDS011;64011;56.312;44.048;2023-09-12T10:40:03;9.07;;;3.35;;
38111;SDS011;64011;56.312;44.048;2023-09-12T10:42:05;7.40;;;3.40;;
38111;SDS011;64011;56.312;44.048;2023-09-12T10:44:09;8.57;;;3.47;;
38111;SDS011;64011;56.312;44.048;2023-09-12T10:46:11;7.28;;;3.33;;
38111;SDS011;64011;56.312;44.048;2023-09-12T10:48:11;8.10;;;3.83;;
38111;SDS011;64011;56.312;44.048;2023-09-12T10:50:12;10.32;;;3.63;;
38111;SDS011;64011;56.312;44.048;2023-09-12T10:52:23;5.38;;;2.92;;
38111;SDS011;64011;56.312;44.048;2023-09-12T10:54:25;7.25;;;3.38;;
38111;SDS011;64011;56.312;44.048;2023-09-12T10:56:28;8.82;;;3.60;;
38111;SDS011;64011;56.312;44.048;2023-09-12T10:58:29;6.15;;;3.22;;
38111;SDS011;64011;56.312;44.048;2023-09-12T11:00:29;10.38;;;3.45;;
38111;SDS011;64011;56.312;44.048;2023-09-12T11:02:31;7.15;;;3.45;;
38111;SDS011;64011;56.312;44.048;2023-09-12T11:04:33;6.43;;;3.47;;
38111;SDS011;64011;56.312;44.048;2023-09-12T11:06:34;8.57;;;3.63;;
38111;SDS011;64011;56.312;44.048;2023-09-12T11:08:35;8.43;;;3.20;;
38111;SDS011;64011;56.312;44.048;2023-09-12T11:10:36;66.45;;;6.70;;
38111;SDS011;64011;56.312;44.048;2023-09-12T11:12:38;12.68;;;3.58;;
38111;SDS011;64011;56.312;44.048;2023-09-12T11:17:20;8.45;;;3.40;;
38111;SDS011;64011;56.312;44.048;2023-09-12T11:19:22;9.82;;;3.00;;
38111;SDS011;64011;56.312;44.048;2023-09-12T11:21:31;5.43;;;2.70;;
38111;SDS011;64011;56.312;44.048;2023-09-12T11:23:32;7.90;;;2.63;;
38111;SDS011;64011;56.312;44.048;2023-09-12T11:25:33;7.40;;;3.13;;
38111;SDS011;64011;56.312;44.048;2023-09-12T11:27:44;7.25;;;3.10;;
38111;SDS011;64011;56.312;44.048;2023-09-12T11:30:05;8.95;;;3.20;;
38111;SDS011;64011;56.312;44.048;2023-09-12T11:32:07;7.80;;;3.22;;
38111;SDS011;64011;56.312;44.048;2023-09-12T11:34:08;7.68;;;3.05;;
38111;SDS011;64011;56.312;44.048;2023-09-12T11:36:12;10.18;;;3.65;;
38111;SDS011;64011;56.312;44.048;2023-09-12T11:38:14;6.05;;;3.10;;
38111;SDS011;64011;56.312;44.048;2023-09-12T11:40:42;10.48;;;3.40;;
38111;SDS011;64011;56.312;44.048;2023-09-12T11:42:43;10.65;;;3.25;;
38111;SDS011;64011;56.312;44.048;2023-09-12T11:44:46;8.13;;;3.10;;
38111;SDS011;64011;56.312;44.048;2023-09-12T11:46:49;7.63;;;3.42;;
38111;SDS011;64011;56.312;44.048;2023-09-12T11:48:50;9.40;;;3.35;;
38111;SDS011;64011;56.312;44.048;2023-09-12T11:50:51;7.70;;;3.17;;
38111;SDS011;64011;56.312;44.048;2023-09-12T11:52:58;5.20;;;2.70;;
38111;SDS011;64011;56.312;44.048;2023-09-12T11:55:00;8.98;;;3.20;;
38111;SDS011;64011;56.312;44.048;2023-09-12T11:57:01;8.02;;;3.20;;
38111;SDS011;64011;56.312;44.048;2023-09-12T11:59:02;8.25;;;3.42;;